Wednesday, December 19, 2018, 6:21 AM GMT
Back to Local

CWTY, Trois Rivieres

Location: , , Canada Lat: 46.35
Local Time: 6:21 AM GMT ( 6:21 GMT) Lon: -72.517
Time Zone: GMT Elev: 19 ft

Show me the last for .
Show Coded

Time T Td Feel RH Dir Speed Gust Alt SLP Vis Weather Sky Remarks
2018-12-19 06:00 16 9 8 75 260° 5 - - 30.04 0 None
2018-12-19 05:00 16 9 10 74 260° 3 - - 30.06 0 None
2018-12-19 04:00 15 9 10 76 250° 3 - - 30.05 0 None
2018-12-19 03:00 16 11 - 81 260° 2 - - 30.06 0 None
2018-12-19 02:00 17 11 10 76 230° 5 - - 30.06 0 None
2018-12-19 01:00 18 10 11 70 260° 5 - - 30.06 0 None
2018-12-19 00:00 18 10 9 69 300° 7 - - 30.06 0 None
2018-12-18 23:00 20 10 8 66 300° 10 - - 30.05 0 None
2018-12-18 22:00 21 11 6 63 300° 13 20 - 30.04 0 Peak wind: 19 mph (17 kts) from 300° at 55 min
2018-12-18 21:00 22 12 8 64 300° 13 20 - 30.03 0 Peak wind: 25 mph (22 kts) from 310° at 20 min
2018-12-18 20:00 23 15 7 71 300° 14 22 - 30.00 0 Peak wind: 25 mph (22 kts) from 300° at 48 min
2018-12-18 19:00 24 13 13 64 300° 10 - - 29.97 0 Peak wind: 21 mph (19 kts) from 280° at 48 min
2018-12-18 18:00 23 13 7 64 300° 16 23 - 29.95 0 Peak wind: 23 mph (20 kts) from 310° at 54 min
2018-12-18 17:00 22 12 8 64 300° 13 18 - 29.95 0 None
2018-12-18 16:00 24 12 9 60 300° 12 21 - 29.94 0 Peak wind: 20 mph (18 kts) from 310° at 59 min
2018-12-18 15:00 21 15 11 75 290° 9 - - 29.95 0 Peak wind: 20 mph (18 kts) from 290° at 35 min
2018-12-18 14:00 20 11 9 68 290° 10 - - 29.95 0 None
2018-12-18 13:00 19 11 12 70 280° 5 - - 29.93 0 None
2018-12-18 12:00 17 9 8 68 290° 7 - - 29.91 0 None
2018-12-18 11:00 16 8 6 68 290° 8 - - 29.88 0 None
2018-12-18 10:00 17 8 6 67 310° 9 - - 29.84 0 None
2018-12-18 09:00 18 8 2 66 320° 10 18 - 29.81 0 Peak wind: 20 mph (18 kts) from 330° at 16 min
2018-12-18 08:00 19 10 5 67 320° 13 - - 29.79 0 Peak wind: 19 mph (17 kts) from 330° at 41 min
2018-12-18 07:00 19 10 1 66 320° 14 24 - 29.76 0 Peak wind: 25 mph (22 kts) from 330° at 07 min

Support USWX by starting your Amazon purchase here.